createdAt,value
2023-08-11T00:02:27.858Z,48.17
2023-08-11T00:04:59.166Z,48.29
2023-08-11T00:07:37.552Z,48.22
2023-08-11T00:10:09.778Z,48.17
2023-08-11T00:12:40.127Z,48.08
2023-08-11T00:15:11.415Z,48.10
2023-08-11T00:17:42.764Z,48.12
2023-08-11T00:20:14.344Z,48.71
2023-08-11T00:22:44.818Z,48.87
2023-08-11T00:25:15.278Z,48.87
2023-08-11T00:27:45.755Z,48.71
2023-08-11T00:30:16.129Z,48.50
2023-08-11T00:32:47.415Z,48.34
2023-08-11T00:35:17.913Z,48.25
2023-08-11T00:40:38.504Z,47.44
2023-08-11T00:43:27.529Z,45.82
2023-08-11T00:45:58.036Z,44.79
2023-08-11T00:48:28.619Z,45.53
2023-08-11T00:50:59.643Z,46.21
2023-08-11T00:53:31.568Z,46.43
2023-08-11T00:56:02.155Z,46.49
2023-08-11T00:58:32.758Z,46.52
2023-08-11T01:01:02.851Z,46.50
2023-08-11T01:03:33.225Z,46.50
2023-08-11T01:06:32.011Z,46.47
2023-08-11T01:09:39.401Z,46.34
2023-08-11T01:12:33.165Z,46.24
2023-08-11T01:15:26.172Z,46.24
2023-08-11T01:17:56.360Z,46.54
2023-08-11T01:20:26.923Z,46.94
2023-08-11T01:22:58.706Z,46.79
2023-08-11T01:25:28.936Z,46.70
2023-08-11T01:30:43.752Z,46.39
2023-08-11T01:33:15.367Z,46.27
2023-08-11T01:35:46.825Z,46.13
2023-08-11T01:38:17.358Z,46.29
2023-08-11T01:40:47.517Z,46.16
2023-08-11T01:43:19.370Z,46.20
2023-08-11T01:45:50.357Z,46.26
2023-08-11T01:48:21.610Z,46.42
2023-08-11T01:50:52.463Z,46.38
2023-08-11T01:53:23.406Z,46.11
2023-08-11T01:55:53.838Z,46.12
2023-08-11T01:58:24.779Z,46.03
2023-08-11T02:00:56.699Z,46.03
2023-08-11T02:03:27.237Z,45.72
2023-08-11T02:05:57.517Z,45.80
2023-08-11T02:08:27.825Z,45.76
2023-08-11T02:10:58.021Z,45.76
2023-08-11T02:13:28.404Z,45.79
2023-08-11T02:15:58.623Z,45.88
2023-08-11T02:18:28.878Z,45.83
2023-08-11T02:20:59.260Z,45.82
2023-08-11T02:23:29.530Z,45.75
2023-08-11T02:25:59.707Z,45.71
2023-08-11T02:28:30.094Z,45.66
2023-08-11T02:31:00.378Z,45.61
2023-08-11T02:33:30.741Z,45.44
2023-08-11T02:36:22.456Z,45.33
2023-08-11T02:38:53.905Z,45.30
2023-08-11T02:41:25.089Z,45.31
2023-08-11T02:43:56.275Z,45.32
2023-08-11T02:46:27.605Z,45.32
2023-08-11T02:48:57.745Z,45.35
2023-08-11T02:51:27.833Z,45.37
2023-08-11T02:53:58.202Z,45.38
2023-08-11T02:56:28.178Z,45.37
2023-08-11T02:58:59.263Z,45.37
2023-08-11T03:01:31.178Z,45.35
2023-08-11T03:04:01.702Z,45.35
2023-08-11T03:06:32.142Z,45.34
2023-08-11T03:09:02.340Z,45.35
2023-08-11T03:11:32.726Z,45.38
2023-08-11T03:14:03.972Z,45.38
2023-08-11T03:16:34.468Z,45.41
2023-08-11T03:19:04.827Z,45.42
2023-08-11T03:21:35.185Z,45.40
2023-08-11T03:24:06.403Z,45.41
2023-08-11T03:26:37.038Z,45.39
2023-08-11T03:29:07.442Z,45.42
2023-08-11T03:31:37.842Z,45.45
2023-08-11T03:34:08.053Z,45.43
2023-08-11T03:36:38.395Z,45.42
2023-08-11T03:39:08.765Z,45.42
2023-08-11T03:41:39.677Z,45.42
2023-08-11T03:44:10.224Z,45.40
2023-08-11T03:46:40.565Z,45.42
2023-08-11T03:49:10.735Z,45.43
2023-08-11T03:52:01.240Z,45.44
2023-08-11T03:54:43.492Z,45.39
2023-08-11T03:57:03.219Z,45.37
2023-08-11T03:59:33.557Z,45.36
2023-08-11T04:02:04.067Z,45.38
2023-08-11T04:04:34.626Z,45.38
2023-08-11T04:07:06.113Z,45.40
2023-08-11T04:09:36.611Z,45.50
2023-08-11T04:12:07.351Z,45.50
2023-08-11T04:14:38.520Z,44.18
2023-08-11T04:17:09.398Z,43.49
2023-08-11T04:19:39.831Z,43.84
2023-08-11T04:22:10.211Z,45.50
2023-08-11T04:24:40.604Z,45.40
2023-08-11T04:27:10.623Z,45.34
2023-08-11T04:32:21.017Z,45.19
2023-08-11T04:34:51.239Z,45.14
2023-08-11T04:37:21.837Z,45.13
2023-08-11T04:39:51.916Z,45.14
2023-08-11T04:42:22.810Z,45.15
2023-08-11T04:44:53.004Z,45.15
2023-08-11T04:47:23.236Z,45.15
2023-08-11T04:49:53.384Z,45.15
2023-08-11T04:52:23.996Z,45.39
2023-08-11T04:54:54.994Z,44.19
2023-08-11T04:57:26.122Z,43.48
2023-08-11T04:59:57.368Z,44.25
2023-08-11T05:02:28.463Z,45.59
2023-08-11T05:04:59.466Z,45.47
2023-08-11T05:07:29.746Z,45.34
2023-08-11T05:10:00.041Z,45.25
2023-08-11T05:12:30.473Z,45.19
2023-08-11T05:15:00.674Z,45.17
2023-08-11T05:17:30.960Z,45.15
2023-08-11T05:20:01.321Z,45.14
2023-08-11T05:22:31.637Z,45.13
2023-08-11T05:25:01.932Z,45.13
2023-08-11T05:27:32.231Z,45.12
2023-08-11T05:30:03.078Z,45.14
2023-08-11T05:32:34.778Z,44.94
2023-08-11T05:35:05.158Z,43.89
2023-08-11T05:37:36.384Z,43.38
2023-08-11T05:43:04.606Z,45.63
2023-08-11T05:45:35.063Z,45.45
2023-08-11T05:48:05.891Z,45.36
2023-08-11T05:50:36.407Z,45.28
2023-08-11T05:53:07.621Z,45.22
2023-08-11T05:55:39.306Z,45.19
2023-08-11T05:58:09.434Z,45.17
2023-08-11T06:00:40.048Z,45.15
2023-08-11T06:03:13.542Z,45.15
2023-08-11T06:05:44.039Z,45.14
2023-08-11T06:08:15.754Z,45.13
2023-08-11T06:10:51.860Z,45.12
2023-08-11T06:13:22.115Z,45.12
2023-08-11T06:15:52.806Z,45.13
2023-08-11T06:18:23.193Z,45.13
2023-08-11T06:20:54.871Z,45.32
2023-08-11T06:23:28.347Z,44.61
2023-08-11T06:25:57.320Z,43.74
2023-08-11T06:28:28.691Z,43.29
2023-08-11T06:30:59.810Z,44.99
2023-08-11T06:33:30.619Z,45.52
2023-08-11T06:36:01.124Z,45.45
2023-08-11T06:38:32.792Z,45.38
2023-08-11T06:41:03.431Z,45.31
2023-08-11T06:43:33.651Z,45.24
2023-08-11T06:46:05.274Z,45.19
2023-08-11T06:48:35.492Z,45.17
2023-08-11T06:51:26.488Z,45.15
2023-08-11T06:53:57.807Z,45.13
2023-08-11T06:56:28.904Z,45.12
2023-08-11T06:58:59.848Z,45.12
2023-08-11T07:01:31.253Z,45.10
2023-08-11T07:04:02.342Z,45.11
2023-08-11T07:06:32.830Z,45.10
2023-08-11T07:09:03.141Z,45.08
2023-08-11T07:11:34.739Z,45.11
2023-08-11T07:14:04.829Z,45.10
2023-08-11T07:16:35.100Z,45.10
2023-08-11T07:19:05.735Z,45.11
2023-08-11T07:21:35.884Z,45.11
2023-08-11T07:24:06.680Z,44.97
2023-08-11T07:26:36.705Z,43.97
2023-08-11T07:29:07.117Z,43.38
2023-08-11T07:31:40.884Z,44.47
2023-08-11T07:34:11.310Z,45.57
2023-08-11T07:36:42.617Z,45.47
2023-08-11T07:42:09.102Z,45.32
2023-08-11T07:44:39.418Z,45.29
2023-08-11T07:47:10.124Z,45.25
2023-08-11T07:49:40.904Z,45.21
2023-08-11T07:52:11.032Z,45.20
2023-08-11T07:54:41.377Z,45.18
2023-08-11T07:57:11.640Z,45.15
2023-08-11T07:59:42.062Z,45.13
2023-08-11T08:02:12.411Z,45.12
2023-08-11T08:04:42.576Z,45.12
2023-08-11T08:07:15.850Z,45.10
2023-08-11T08:09:46.984Z,45.12
2023-08-11T08:12:17.931Z,45.10
2023-08-11T08:14:48.262Z,45.10
2023-08-11T08:17:18.527Z,45.09
2023-08-11T08:19:48.772Z,45.09
2023-08-11T08:22:19.075Z,45.09
2023-08-11T08:24:50.211Z,45.08
2023-08-11T08:27:21.800Z,45.09
2023-08-11T08:29:52.139Z,45.09
2023-08-11T08:32:41.392Z,45.09
2023-08-11T08:35:12.112Z,45.08
2023-08-11T08:37:42.614Z,45.06
2023-08-11T08:40:14.431Z,45.23
2023-08-11T08:42:44.525Z,44.41
2023-08-11T08:45:14.783Z,43.55
2023-08-11T08:47:45.185Z,43.13
2023-08-11T08:50:15.376Z,44.71
2023-08-11T08:52:45.623Z,45.36
2023-08-11T08:55:17.375Z,45.29
2023-08-11T08:58:09.416Z,45.24
2023-08-11T09:00:39.926Z,45.18
2023-08-11T09:03:10.395Z,45.14
2023-08-11T09:05:40.853Z,45.12
2023-08-11T09:08:11.234Z,45.13
2023-08-11T09:10:41.694Z,45.07
2023-08-11T09:13:13.432Z,45.06
2023-08-11T09:16:04.214Z,45.04
2023-08-11T09:18:54.798Z,45.01
2023-08-11T09:21:27.488Z,44.99
2023-08-11T09:23:58.600Z,45.00
2023-08-11T09:26:30.567Z,44.98
2023-08-11T09:29:01.406Z,44.98
2023-08-11T09:31:32.682Z,44.98
2023-08-11T09:34:05.068Z,44.99
2023-08-11T09:36:35.388Z,44.97
2023-08-11T09:41:46.325Z,44.94
2023-08-11T09:44:18.192Z,44.94
2023-08-11T09:46:51.203Z,44.93
2023-08-11T09:49:21.391Z,44.94
2023-08-11T09:54:21.385Z,44.92
2023-08-11T09:56:51.667Z,44.93
2023-08-11T09:59:22.433Z,44.91
2023-08-11T10:01:52.464Z,44.94
2023-08-11T10:04:31.410Z,44.92
2023-08-11T10:07:01.912Z,44.91
2023-08-11T10:12:23.330Z,44.91
2023-08-11T10:14:53.803Z,44.92
2023-08-11T10:17:24.009Z,44.94
2023-08-11T10:19:54.838Z,44.92
2023-08-11T10:22:25.336Z,44.91
2023-08-11T10:24:55.489Z,44.90
2023-08-11T10:27:25.818Z,44.93
2023-08-11T10:30:15.209Z,44.93
2023-08-11T10:32:45.528Z,44.91
2023-08-11T10:35:28.941Z,44.92
2023-08-11T10:38:02.126Z,44.91
2023-08-11T10:40:38.492Z,43.85
2023-08-11T10:43:08.905Z,44.14
2023-08-11T10:45:40.526Z,45.63
2023-08-11T10:48:11.532Z,45.55
2023-08-11T10:50:41.926Z,45.46
2023-08-11T10:53:22.769Z,45.40
2023-08-11T10:56:03.593Z,45.34
2023-08-11T10:58:33.743Z,45.28
2023-08-11T11:01:05.746Z,45.27
2023-08-11T11:03:36.132Z,45.25
2023-08-11T11:06:07.659Z,45.21
2023-08-11T11:08:38.020Z,45.19
2023-08-11T11:11:09.460Z,45.16
2023-08-11T11:13:39.655Z,45.16
2023-08-11T11:16:10.141Z,45.15
2023-08-11T11:18:41.876Z,45.13
2023-08-11T11:21:15.881Z,45.13
2023-08-11T11:23:50.022Z,45.12
2023-08-11T11:26:30.140Z,45.13
2023-08-11T11:29:02.269Z,45.15
2023-08-11T11:31:36.489Z,45.16
2023-08-11T11:34:06.961Z,45.16
2023-08-11T11:36:37.326Z,45.23
2023-08-11T11:39:09.967Z,45.23
2023-08-11T11:41:40.192Z,45.24
2023-08-11T11:44:13.070Z,45.27
2023-08-11T11:46:43.969Z,45.23
2023-08-11T11:49:24.356Z,45.25
2023-08-11T11:51:47.533Z,45.22
2023-08-11T11:54:17.858Z,45.20
2023-08-11T11:57:02.359Z,45.24
2023-08-11T11:59:19.930Z,45.25
2023-08-11T12:01:50.393Z,45.25
2023-08-11T12:04:40.640Z,45.22
2023-08-11T12:07:11.388Z,45.20
2023-08-11T12:09:56.609Z,45.44
2023-08-11T12:12:31.583Z,45.44
2023-08-11T12:15:10.840Z,45.26
2023-08-11T12:17:41.069Z,45.25
2023-08-11T12:20:12.092Z,45.25
2023-08-11T12:22:44.469Z,45.25
2023-08-11T12:25:16.015Z,45.21
2023-08-11T12:27:47.061Z,45.22
2023-08-11T12:30:17.834Z,45.23
2023-08-11T12:32:48.258Z,45.24
2023-08-11T12:35:18.594Z,45.24
2023-08-11T12:37:48.940Z,45.24
2023-08-11T12:40:39.400Z,45.21
2023-08-11T12:43:13.492Z,45.24
2023-08-11T12:45:46.450Z,45.22
2023-08-11T12:48:17.278Z,45.21
2023-08-11T12:50:47.483Z,45.17
2023-08-11T12:53:17.896Z,45.18
2023-08-11T12:55:48.069Z,45.18
2023-08-11T12:58:20.726Z,45.19
2023-08-11T13:00:51.145Z,45.21
2023-08-11T13:03:21.109Z,44.35
2023-08-11T13:06:11.709Z,43.37
2023-08-11T13:08:42.174Z,42.81
2023-08-11T13:11:12.386Z,42.45
2023-08-11T13:13:42.589Z,42.22
2023-08-11T13:16:14.498Z,42.24
2023-08-11T13:18:44.961Z,42.14
2023-08-11T13:21:15.278Z,42.29
2023-08-11T13:23:45.573Z,44.76
2023-08-11T13:26:17.500Z,44.88
2023-08-11T13:28:47.666Z,44.97
2023-08-11T13:31:17.977Z,44.80
2023-08-11T13:33:51.126Z,44.78
2023-08-11T13:36:21.405Z,44.70
2023-08-11T13:38:51.981Z,44.75
2023-08-11T13:41:22.322Z,44.80
2023-08-11T13:43:52.794Z,45.05
2023-08-11T13:46:23.085Z,44.30
2023-08-11T13:48:53.274Z,43.60
2023-08-11T13:51:43.889Z,43.34
2023-08-11T13:54:14.309Z,45.58
2023-08-11T13:56:44.655Z,45.51
2023-08-11T13:59:15.374Z,45.43
2023-08-11T14:01:45.811Z,45.34
2023-08-11T14:04:16.106Z,45.33
2023-08-11T14:06:46.162Z,45.33
2023-08-11T14:09:16.438Z,45.23
2023-08-11T14:11:46.469Z,45.31
2023-08-11T14:14:16.833Z,45.25
2023-08-11T14:16:47.175Z,46.56
2023-08-11T14:19:17.471Z,46.92
2023-08-11T14:21:52.188Z,46.80
2023-08-11T14:24:22.678Z,46.63
2023-08-11T14:26:52.833Z,46.50
2023-08-11T14:29:23.376Z,46.02
2023-08-11T14:32:13.809Z,47.53
2023-08-11T14:34:31.904Z,47.56
2023-08-11T14:37:02.246Z,47.47
2023-08-11T14:39:32.788Z,47.37
2023-08-11T14:42:02.913Z,47.30
2023-08-11T14:44:34.267Z,46.74
2023-08-11T14:47:05.358Z,48.19
2023-08-11T14:49:36.127Z,47.95
2023-08-11T14:52:07.820Z,47.79
2023-08-11T14:54:39.011Z,47.59
2023-08-11T14:57:10.997Z,47.52
2023-08-11T14:59:41.969Z,47.92
2023-08-11T15:02:12.541Z,48.39
2023-08-11T15:04:43.092Z,48.30
2023-08-11T15:07:13.231Z,48.08
2023-08-11T15:09:43.271Z,48.11
2023-08-11T15:12:13.712Z,47.08
2023-08-11T15:14:44.256Z,48.38
2023-08-11T15:17:15.530Z,48.54
2023-08-11T15:19:45.666Z,48.50
2023-08-11T15:22:16.157Z,48.26
2023-08-11T15:24:46.471Z,48.27
2023-08-11T15:27:18.163Z,48.42
2023-08-11T15:29:48.409Z,49.25
2023-08-11T15:32:18.764Z,49.07
2023-08-11T15:34:48.857Z,48.71
2023-08-11T15:37:19.334Z,48.71
2023-08-11T15:39:49.387Z,48.27
2023-08-11T15:42:19.997Z,49.38
2023-08-11T15:44:50.229Z,49.39
2023-08-11T15:47:20.243Z,49.24
2023-08-11T15:49:50.604Z,48.92
2023-08-11T15:52:20.693Z,49.14
2023-08-11T15:54:50.989Z,48.38
2023-08-11T15:57:21.369Z,49.61
2023-08-11T15:59:51.667Z,49.55
2023-08-11T16:02:23.534Z,49.22
2023-08-11T16:04:53.633Z,48.88
2023-08-11T16:07:25.066Z,48.75
2023-08-11T16:09:56.881Z,49.24
2023-08-11T16:12:27.104Z,49.66
2023-08-11T16:14:57.398Z,49.39
2023-08-11T16:17:27.834Z,49.09
2023-08-11T16:19:58.196Z,49.07
2023-08-11T16:22:28.628Z,48.40
2023-08-11T16:24:58.708Z,49.51
2023-08-11T16:27:30.145Z,49.48
2023-08-11T16:30:00.778Z,49.23
2023-08-11T16:32:30.946Z,48.93
2023-08-11T16:35:01.770Z,48.98
2023-08-11T16:37:31.911Z,48.87
2023-08-11T16:40:02.145Z,49.56
2023-08-11T16:42:32.361Z,49.41
2023-08-11T16:45:02.514Z,49.10
2023-08-11T16:47:32.814Z,49.15
2023-08-11T16:50:03.737Z,48.66
2023-08-11T16:52:34.099Z,49.09
2023-08-11T16:55:05.140Z,49.33
2023-08-11T16:57:36.154Z,49.22
2023-08-11T17:00:07.960Z,49.14
2023-08-11T17:02:38.354Z,47.98
2023-08-11T17:05:09.262Z,46.99
2023-08-11T17:07:43.050Z,46.32
2023-08-11T17:10:17.036Z,46.06
2023-08-11T17:12:50.363Z,45.94
2023-08-11T17:15:19.067Z,45.71
2023-08-11T17:17:49.302Z,45.62
2023-08-11T17:20:20.197Z,45.55
2023-08-11T17:22:53.803Z,45.46
2023-08-11T17:25:23.880Z,45.49
2023-08-11T17:27:53.939Z,45.47
2023-08-11T17:30:24.307Z,45.51
2023-08-11T17:32:54.536Z,45.51
2023-08-11T17:35:24.745Z,45.50
2023-08-11T17:37:56.500Z,45.51
2023-08-11T17:40:26.903Z,45.63
2023-08-11T17:43:03.685Z,45.61
2023-08-11T17:45:34.185Z,45.71
2023-08-11T17:48:04.762Z,45.94
2023-08-11T17:50:35.862Z,45.96
2023-08-11T17:53:07.266Z,46.03
2023-08-11T17:55:38.055Z,46.12
2023-08-11T17:58:09.127Z,46.18
2023-08-11T18:00:39.430Z,47.73
2023-08-11T18:03:10.794Z,48.93
2023-08-11T18:05:43.773Z,49.06
2023-08-11T18:08:13.932Z,48.29
2023-08-11T18:10:44.329Z,47.49
2023-08-11T18:13:14.890Z,47.13
2023-08-11T18:15:45.239Z,46.86
2023-08-11T18:18:15.365Z,46.67
2023-08-11T18:20:45.588Z,46.59
2023-08-11T18:23:16.257Z,46.51
2023-08-11T18:25:46.634Z,46.49
2023-08-11T18:28:17.238Z,46.45
2023-08-11T18:30:47.644Z,46.47
2023-08-11T18:33:17.793Z,46.80
2023-08-11T18:35:48.192Z,49.12
2023-08-11T18:38:18.406Z,48.99
2023-08-11T18:40:50.243Z,48.69
2023-08-11T18:43:29.354Z,48.73
2023-08-11T18:45:59.894Z,48.94
2023-08-11T18:48:30.118Z,48.02
2023-08-11T18:51:00.501Z,49.92
2023-08-11T18:53:31.364Z,50.01
2023-08-11T18:56:01.640Z,49.70
2023-08-11T18:58:32.032Z,49.99
2023-08-11T19:01:02.214Z,48.93
2023-08-11T19:03:32.707Z,48.19
2023-08-11T19:06:03.129Z,47.80
2023-08-11T19:08:33.296Z,47.50
2023-08-11T19:11:03.988Z,47.28
2023-08-11T19:13:34.338Z,47.19
2023-08-11T19:16:04.674Z,47.11
2023-08-11T19:18:35.130Z,47.06
2023-08-11T19:21:05.452Z,49.51
2023-08-11T19:23:35.829Z,49.59
2023-08-11T19:26:06.276Z,49.29
2023-08-11T19:28:36.615Z,49.38
2023-08-11T19:31:06.843Z,49.28
2023-08-11T19:33:37.253Z,48.42
2023-08-11T19:36:08.559Z,47.89
2023-08-11T19:38:40.849Z,47.64
2023-08-11T19:41:12.397Z,47.39
2023-08-11T19:43:42.851Z,47.30
2023-08-11T19:46:13.335Z,47.21
2023-08-11T19:48:43.627Z,47.28
2023-08-11T19:51:13.760Z,49.84
2023-08-11T19:53:44.277Z,49.57
2023-08-11T19:56:14.677Z,49.24
2023-08-11T19:58:44.913Z,48.98
2023-08-11T20:01:15.172Z,49.56
2023-08-11T20:03:45.579Z,49.03
2023-08-11T20:06:15.912Z,48.43
2023-08-11T20:08:46.284Z,48.69
2023-08-11T20:11:16.584Z,50.33
2023-08-11T20:13:47.000Z,50.10
2023-08-11T20:16:17.611Z,50.01
2023-08-11T20:18:48.645Z,49.28
2023-08-11T20:21:18.983Z,48.56
2023-08-11T20:23:49.412Z,48.90
2023-08-11T20:26:19.538Z,50.34
2023-08-11T20:28:49.652Z,50.12
2023-08-11T20:31:19.998Z,50.50
2023-08-11T20:33:50.302Z,50.06
2023-08-11T20:36:20.974Z,49.23
2023-08-11T20:38:51.664Z,48.63
2023-08-11T20:41:21.988Z,48.29
2023-08-11T20:43:52.281Z,48.07
2023-08-11T20:46:22.736Z,47.92
2023-08-11T20:48:52.908Z,47.75
2023-08-11T20:51:23.229Z,47.69
2023-08-11T20:53:53.712Z,47.62
2023-08-11T20:56:24.210Z,47.53
2023-08-11T20:58:54.131Z,47.45
2023-08-11T21:01:24.638Z,47.45
2023-08-11T21:03:54.883Z,47.45
2023-08-11T21:06:25.052Z,47.40
2023-08-11T21:08:55.840Z,47.37
2023-08-11T21:11:26.159Z,47.37
2023-08-11T21:13:57.514Z,47.39
2023-08-11T21:16:27.873Z,47.39
2023-08-11T21:18:58.217Z,47.39
2023-08-11T21:21:28.584Z,47.35
2023-08-11T21:23:58.722Z,47.32
2023-08-11T21:26:28.972Z,47.30
2023-08-11T21:29:03.958Z,47.30
2023-08-11T21:31:34.590Z,47.49
2023-08-11T21:34:10.777Z,49.02
2023-08-11T21:36:41.470Z,48.90
2023-08-11T21:39:12.742Z,49.29
2023-08-11T21:41:44.044Z,48.56
2023-08-11T21:44:15.020Z,48.18
2023-08-11T21:46:44.941Z,47.77
2023-08-11T21:49:14.962Z,47.53
2023-08-11T21:51:45.105Z,47.39
2023-08-11T21:54:15.202Z,47.25
2023-08-11T21:56:45.573Z,47.12
2023-08-11T21:59:15.927Z,47.03
2023-08-11T22:01:46.387Z,46.97
2023-08-11T22:04:16.525Z,46.92
2023-08-11T22:07:06.842Z,46.82
2023-08-11T22:09:37.588Z,46.86
2023-08-11T22:12:08.239Z,48.07
2023-08-11T22:14:38.469Z,48.02
2023-08-11T22:17:08.967Z,48.02
2023-08-11T22:19:41.031Z,48.80
2023-08-11T22:22:13.730Z,49.23
2023-08-11T22:24:44.574Z,49.45
2023-08-11T22:27:16.081Z,49.30
2023-08-11T22:29:51.276Z,49.21
2023-08-11T22:32:21.555Z,49.29
2023-08-11T22:34:54.700Z,49.43
2023-08-11T22:37:25.429Z,49.59
2023-08-11T22:39:55.734Z,49.77
2023-08-11T22:42:28.042Z,49.89
2023-08-11T22:45:18.492Z,50.04
2023-08-11T22:47:48.879Z,50.16
2023-08-11T22:50:19.325Z,50.33
2023-08-11T22:52:49.969Z,50.44
2023-08-11T22:55:20.280Z,50.54
2023-08-11T22:57:50.541Z,50.82
2023-08-11T23:00:21.638Z,50.97
2023-08-11T23:02:52.053Z,50.02
2023-08-11T23:05:22.374Z,49.08
2023-08-11T23:07:54.142Z,48.42
2023-08-11T23:10:24.423Z,48.01
2023-08-11T23:12:54.794Z,47.60
2023-08-11T23:15:25.198Z,47.23
2023-08-11T23:17:56.834Z,47.13
2023-08-11T23:20:26.993Z,47.92
2023-08-11T23:22:57.295Z,48.19
2023-08-11T23:25:27.916Z,48.38
2023-08-11T23:27:59.930Z,48.53
2023-08-11T23:30:34.826Z,48.94
2023-08-11T23:33:06.874Z,48.49
2023-08-11T23:35:44.824Z,47.80
2023-08-11T23:38:16.411Z,47.18
2023-08-11T23:40:46.950Z,46.67
2023-08-11T23:43:18.782Z,46.34
2023-08-11T23:45:49.095Z,46.07
2023-08-11T23:48:21.187Z,45.83
2023-08-11T23:50:53.157Z,46.80
2023-08-11T23:53:23.642Z,47.15
2023-08-11T23:55:54.420Z,47.31
2023-08-11T23:58:24.933Z,47.42
